Garland's Hourly Summary for Sunday, July 8, 2018
Hour Temp
(f)
RH
(%)
Solar Rad.
(MJ/m2)
Rainfall
(in)
Wind
(mph)
7/8/2018 12:00 AM 82 54 0 0 4.69
7/8/2018 1:00 AM 80 59 0 0 2.6
7/8/2018 2:00 AM 79 64 0 0 2.46
7/8/2018 3:00 AM 78 65 0 0 1.36
7/8/2018 4:00 AM 77 68 0 0 0.24
7/8/2018 5:00 AM 75 74 0 0 0.14
7/8/2018 6:00 AM 74 77 0 0 0.61
7/8/2018 7:00 AM 74 79 0.03 0 1.45
7/8/2018 8:00 AM 76 75 0.45 0 2.84
7/8/2018 9:00 AM 77 68 1 0 4.76
7/8/2018 10:00 AM 80 61 1.73 0 4.98
7/8/2018 11:00 AM 82 54 2.35 0 5.67
7/8/2018 12:00 PM 85 49 2.85 0 5.55
7/8/2018 1:00 PM 86 46 2.44 0 6.62
7/8/2018 2:00 PM 87 42 1.82 0 6.36
7/8/2018 3:00 PM 90 33 3 0 8.08
7/8/2018 4:00 PM 90 33 1.67 0 8.5
7/8/2018 5:00 PM 91 30 1.63 0 8.27
7/8/2018 6:00 PM 90 32 1.66 0 8.26
7/8/2018 7:00 PM 89 42 1.21 0 7.41
7/8/2018 8:00 PM 86 46 0.49 0 7.02
7/8/2018 9:00 PM 84 52 0.05 0 5.56
7/8/2018 10:00 PM 82 53 0 0 4.94
7/8/2018 11:00 PM 81 56 0 0 4.8
Data Summary 82 54 22.38 0.00 4.72